Time;durP1;ratioP1;P1;durP2;ratioP2;P2;SDS_P1;SDS_P2;PMS_P1;PMS_P2;Temp;Humidity;BMP_temperature;BMP_pressure;BME280_temperature;BME280_humidity;BME280_pressure;Samples;Min_cycle;Max_cycle;Signal;HPM_P1;HPM_P2
2023/10/25 04:02:38;;;;;;;0.60;0.30;;;11.30;1.00;;;;;;4871662;29;20494;-69
2023/10/25 04:05:07;;;;;;;0.50;0.20;;;11.10;1.00;;;;;;4871112;29;20506;-71
2023/10/25 04:07:35;;;;;;;0.60;0.40;;;11.00;1.00;;;;;;4881291;29;20454;-70
2023/10/25 04:10:03;;;;;;;0.50;0.10;;;11.00;1.00;;;;;;4883061;29;20555;-70
2023/10/25 04:12:31;;;;;;;0.50;0.17;;;11.10;1.00;;;;;;4879557;29;20875;-69
2023/10/25 04:14:59;;;;;;;0.50;0.10;;;11.00;1.00;;;;;;4874981;29;20489;-72
2023/10/25 04:17:27;;;;;;;0.60;0.40;;;11.00;1.00;;;;;;4879637;29;20546;-71
2023/10/25 04:19:56;;;;;;;0.50;0.10;;;11.10;1.00;;;;;;4878146;29;20458;-71
2023/10/25 04:22:24;;;;;;;0.50;0.10;;;11.10;1.00;;;;;;4872332;29;20573;-71
2023/10/25 04:24:52;;;;;;;0.50;0.10;;;11.10;1.00;;;;;;4869483;29;20664;-71
2023/10/25 04:27:20;;;;;;;0.50;0.10;;;11.20;1.00;;;;;;4878311;29;20461;-71
2023/10/25 04:29:48;;;;;;;1.60;1.50;;;11.10;1.00;;;;;;4877812;29;20466;-70
2023/10/25 04:32:16;;;;;;;0.50;0.10;;;11.00;1.00;;;;;;4875943;29;20470;-72
2023/10/25 04:34:44;;;;;;;0.50;0.10;;;11.10;1.00;;;;;;4884119;29;20470;-71
2023/10/25 04:40:00;;;;;;;0.50;0.10;;;10.90;1.00;;;;;;4886397;29;20489;-67
2023/10/25 04:42:28;;;;;;;0.50;0.20;;;10.90;1.00;;;;;;4895473;29;20544;-68
2023/10/25 04:44:56;;;;;;;0.50;0.10;;;10.80;1.00;;;;;;4892215;29;20441;-67
2023/10/25 04:47:24;;;;;;;1.00;0.20;;;10.80;1.00;;;;;;4881792;29;20450;-67
2023/10/25 04:49:52;;;;;;;0.60;0.10;;;10.80;1.00;;;;;;4875980;29;20454;-66
2023/10/25 04:52:20;;;;;;;0.60;0.23;;;10.80;1.00;;;;;;4875343;29;20510;-66
2023/10/25 04:54:48;;;;;;;1.30;1.20;;;;;;;;;;4867165;29;20450;-65
2023/10/25 04:57:20;;;;;;;0.50;0.10;;;10.60;1.00;;;;;;4872505;29;20466;-65
2023/10/25 04:59:48;;;;;;;0.60;0.30;;;10.60;1.00;;;;;;4869209;29;20952;-66
2023/10/25 05:02:16;;;;;;;0.50;0.30;;;10.70;1.00;;;;;;4870632;29;20456;-66
2023/10/25 05:04:45;;;;;;;0.50;0.10;;;;;;;;;;4877361;29;20554;-66
2023/10/25 05:07:13;;;;;;;0.67;0.17;;;10.70;1.00;;;;;;4877066;29;20903;-66
2023/10/25 05:09:41;;;;;;;0.60;0.37;;;10.80;1.00;;;;;;4869079;29;20451;-66
2023/10/25 05:12:13;;;;;;;0.50;0.10;;;10.80;1.00;;;;;;4870671;29;20454;-67
2023/10/25 05:14:43;;;;;;;0.50;0.10;;;10.90;1.00;;;;;;4869559;29;20491;-69
2023/10/25 05:17:11;;;;;;;0.50;0.10;;;10.90;1.00;;;;;;4869506;29;20461;-66
2023/10/25 05:19:40;;;;;;;0.50;0.10;;;11.00;1.00;;;;;;4876575;29;20446;-66
2023/10/25 05:22:12;;;;;;;0.50;0.10;;;11.00;1.00;;;;;;4875901;29;20590;-67
2023/10/25 05:24:40;;;;;;;0.50;0.10;;;11.10;1.00;;;;;;4874013;29;20466;-69
2023/10/25 05:27:09;;;;;;;0.50;0.10;;;;;;;;;;4872801;29;20497;-67
2023/10/25 05:29:37;;;;;;;0.50;0.10;;;10.90;1.00;;;;;;4876479;29;20466;-67
2023/10/25 05:32:13;;;;;;;0.50;0.20;;;11.00;1.00;;;;;;4872388;29;20486;-66
2023/10/25 05:34:42;;;;;;;0.60;0.30;;;10.90;1.00;;;;;;4877402;29;20595;-67
2023/10/25 05:37:10;;;;;;;0.53;0.10;;;11.00;1.00;;;;;;4872507;29;20482;-66
2023/10/25 05:39:39;;;;;;;0.50;0.10;;;11.00;1.00;;;;;;4879761;29;20458;-67
2023/10/25 05:42:10;;;;;;;0.50;0.10;;;11.00;1.00;;;;;;4873573;29;20591;-67
2023/10/25 05:44:39;;;;;;;0.50;0.10;;;11.00;1.00;;;;;;4876113;29;20542;-68
2023/10/25 05:47:08;;;;;;;0.50;0.10;;;11.10;1.00;;;;;;4879770;29;20446;-67
2023/10/25 05:49:36;;;;;;;0.50;0.10;;;11.20;1.00;;;;;;4873154;29;20519;-67
2023/10/25 05:52:05;;;;;;;0.50;0.10;;;11.10;1.00;;;;;;4871555;29;20549;-66
2023/10/25 05:54:33;;;;;;;0.50;0.10;;;11.10;1.00;;;;;;4879577;29;21026;-67
2023/10/25 05:57:02;;;;;;;0.50;0.10;;;11.10;1.00;;;;;;4869954;29;20461;-67
2023/10/25 05:59:30;;;;;;;0.50;0.30;;;11.10;1.00;;;;;;4861032;29;20468;-68
2023/10/25 06:02:07;;;;;;;0.50;0.10;;;11.10;1.00;;;;;;4874386;29;20831;-68
2023/10/25 06:04:37;;;;;;;0.50;0.10;;;11.20;1.00;;;;;;4879896;29;20446;-68
2023/10/25 06:07:07;;;;;;;0.50;0.10;;;11.10;1.00;;;;;;4861875;29;20455;-67
2023/10/25 06:09:37;;;;;;;1.20;1.13;;;11.00;1.00;;;;;;4868463;29;20490;-67
2023/10/25 06:12:05;;;;;;;0.50;0.10;;;11.00;1.00;;;;;;4877874;29;20476;-67
2023/10/25 06:14:33;;;;;;;0.50;0.10;;;11.00;1.00;;;;;;4871736;29;21077;-66
2023/10/25 06:17:02;;;;;;;0.50;0.10;;;11.00;1.00;;;;;;4877919;29;20454;-67
2023/10/25 06:19:30;;;;;;;0.50;0.10;;;11.00;1.00;;;;;;4877829;29;20478;-68
2023/10/25 06:21:59;;;;;;;0.50;0.10;;;11.00;1.00;;;;;;4873160;29;20573;-67
2023/10/25 06:24:27;;;;;;;0.50;0.10;;;11.10;1.00;;;;;;4876273;29;20454;-67
2023/10/25 06:26:55;;;;;;;0.70;0.70;;;11.10;1.00;;;;;;4859093;29;20453;-69
2023/10/25 06:29:24;;;;;;;0.50;0.10;;;11.00;1.00;;;;;;4860121;29;20479;-67
2023/10/25 06:31:52;;;;;;;0.50;0.10;;;11.10;1.00;;;;;;4871920;29;20495;-67
2023/10/25 06:34:21;;;;;;;0.50;0.10;;;11.10;1.00;;;;;;4865389;29;20516;-67
2023/10/25 06:36:49;;;;;;;0.50;0.10;;;11.00;1.00;;;;;;4875575;29;20450;-67
2023/10/25 06:39:19;;;;;;;3.20;2.90;;;10.90;1.00;;;;;;4860103;29;20479;-68
2023/10/25 06:41:48;;;;;;;0.67;0.30;;;10.80;1.00;;;;;;4868905;29;20478;-68
2023/10/25 06:44:16;;;;;;;0.50;0.10;;;10.80;1.00;;;;;;4877590;29;20537;-68
2023/10/25 06:46:45;;;;;;;2.60;2.40;;;10.80;1.00;;;;;;4864866;29;20501;-67
2023/10/25 06:49:13;;;;;;;0.90;0.73;;;10.60;1.00;;;;;;4866265;29;20487;-66
2023/10/25 06:51:42;;;;;;;0.50;0.10;;;10.70;1.00;;;;;;4878397;29;20450;-67
2023/10/25 06:54:11;;;;;;;2.30;2.10;;;10.60;1.00;;;;;;4867144;29;20924;-67
2023/10/25 06:56:41;;;;;;;0.50;0.10;;;10.60;1.00;;;;;;4860244;29;20452;-67
2023/10/25 06:59:10;;;;;;;0.50;0.10;;;10.60;1.00;;;;;;4876169;29;20564;-67
2023/10/25 07:01:42;;;;;;;0.50;0.20;;;10.60;1.00;;;;;;4874996;29;20466;-67
2023/10/25 07:04:14;;;;;;;0.50;0.10;;;10.70;1.00;;;;;;4877102;29;20452;-67
2023/10/25 07:06:46;;;;;;;0.50;0.10;;;10.80;1.00;;;;;;4872154;29;20533;-68
2023/10/25 07:09:15;;;;;;;0.60;0.40;;;10.80;1.00;;;;;;4872417;29;21092;-67
2023/10/25 07:11:44;;;;;;;1.73;0.60;;;10.70;1.00;;;;;;4874153;29;20804;-67
2023/10/25 07:14:14;;;;;;;0.50;0.10;;;10.60;1.00;;;;;;4870265;29;20573;-67
2023/10/25 07:16:42;;;;;;;0.50;0.20;;;10.60;1.00;;;;;;4877420;29;20454;-67
2023/10/25 07:19:10;;;;;;;0.60;0.10;;;10.60;1.00;;;;;;4875033;29;20482;-68
2023/10/25 07:21:38;;;;;;;3.03;2.40;;;10.60;1.00;;;;;;4877406;29;20996;-69
2023/10/25 07:24:07;;;;;;;0.50;0.10;;;10.60;1.00;;;;;;4877768;29;20478;-68
2023/10/25 07:26:35;;;;;;;1.70;1.60;;;10.50;1.00;;;;;;4872478;29;20533;-69
2023/10/25 07:29:04;;;;;;;0.50;0.30;;;10.40;1.00;;;;;;4877898;29;20966;-68
2023/10/25 07:31:32;;;;;;;1.23;1.17;;;10.30;1.00;;;;;;4873224;29;20466;-68
2023/10/25 07:34:00;;;;;;;0.50;0.20;;;10.30;1.00;;;;;;4862918;29;21046;-66
2023/10/25 07:36:27;;;;;;;0.50;0.20;;;10.30;1.00;;;;;;4871532;29;20938;-68
2023/10/25 07:38:55;;;;;;;1.17;0.93;;;10.40;1.00;;;;;;4876588;29;20514;-69
2023/10/25 07:41:24;;;;;;;0.50;0.10;;;;;;;;;;4876030;29;21025;-69
2023/10/25 07:43:51;;;;;;;3.60;3.40;;;10.30;1.00;;;;;;4876308;29;20450;-69
2023/10/25 07:46:21;;;;;;;0.53;0.10;;;10.30;1.00;;;;;;4876547;29;20548;-69
2023/10/25 07:48:50;;;;;;;0.50;0.10;;;;;;;;;;4875897;29;20518;-70
2023/10/25 07:51:18;;;;;;;0.50;0.10;;;10.40;1.00;;;;;;4865636;29;20458;-68
2023/10/25 07:53:46;;;;;;;0.50;0.10;;;10.40;1.00;;;;;;4873982;29;20450;-67
2023/10/25 07:56:14;;;;;;;0.50;0.10;;;10.40;1.00;;;;;;4871126;29;20549;-68
2023/10/25 07:58:45;;;;;;;0.50;0.10;;;10.50;1.00;;;;;;4878073;29;20561;-68
2023/10/25 08:01:13;;;;;;;0.50;0.10;;;10.50;1.00;;;;;;4877994;29;21094;-68
2023/10/25 08:03:42;;;;;;;0.70;0.60;;;10.40;1.00;;;;;;4878097;29;20456;-68
2023/10/25 08:06:10;;;;;;;0.50;0.10;;;10.40;1.00;;;;;;4873229;29;20866;-68
2023/10/25 08:08:39;;;;;;;0.73;0.73;;;10.30;1.00;;;;;;4866273;29;20898;-69
2023/10/25 08:11:07;;;;;;;0.50;0.10;;;10.40;1.00;;;;;;4877382;29;20462;-69
2023/10/25 08:13:38;;;;;;;0.50;0.10;;;10.50;1.00;;;;;;4871469;29;20530;-69
2023/10/25 08:16:06;;;;;;;0.50;0.10;;;10.60;1.00;;;;;;4876776;29;20486;-69
2023/10/25 08:18:34;;;;;;;0.50;0.23;;;10.60;1.00;;;;;;4871416;29;20475;-68
2023/10/25 08:21:03;;;;;;;0.50;0.10;;;10.60;1.00;;;;;;4866738;29;20821;-69
2023/10/25 08:23:34;;;;;;;0.50;0.10;;;;;;;;;;4871877;29;20462;-68
2023/10/25 08:26:02;;;;;;;0.50;0.10;;;10.70;1.00;;;;;;4873349;29;20466;-67
2023/10/25 08:28:30;;;;;;;0.50;0.10;;;;;;;;;;4866999;29;20478;-69
2023/10/25 08:30:58;;;;;;;1.80;1.70;;;11.00;1.00;;;;;;4864983;29;20454;-69
2023/10/25 08:33:26;;;;;;;0.50;0.10;;;11.00;1.00;;;;;;4867686;29;20537;-69
2023/10/25 08:36:03;;;;;;;0.50;0.10;;;11.10;1.00;;;;;;4872740;29;21084;-69
2023/10/25 08:38:30;;;;;;;0.50;0.10;;;11.10;1.00;;;;;;4866771;29;21004;-69
2023/10/25 08:41:03;;;;;;;0.50;0.10;;;11.30;1.00;;;;;;4863217;29;20483;-69
2023/10/25 08:43:32;;;;;;;0.50;0.10;;;11.40;1.00;;;;;;4870061;29;20530;-68
2023/10/25 08:46:03;;;;;;;0.50;0.10;;;11.40;1.00;;;;;;4876020;29;20469;-69
2023/10/25 08:48:31;;;;;;;0.50;0.10;;;11.50;1.00;;;;;;4870641;29;20857;-69
2023/10/25 08:51:00;;;;;;;0.60;0.37;;;11.40;1.00;;;;;;4875288;29;20450;-69
2023/10/25 08:53:31;;;;;;;0.50;0.10;;;11.40;1.00;;;;;;4872525;29;20447;-69
2023/10/25 08:55:59;;;;;;;0.50;0.10;;;11.50;1.00;;;;;;4866426;29;20498;-69
2023/10/25 08:58:27;;;;;;;0.50;0.10;;;11.60;1.00;;;;;;4872851;29;20551;-68
2023/10/25 09:00:55;;;;;;;0.50;0.10;;;11.70;1.00;;;;;;4866587;29;20458;-68
2023/10/25 09:03:40;;;;;;;0.50;0.10;;;11.80;1.00;;;;;;4869691;29;20940;-67
2023/10/25 09:06:09;;;;;;;0.50;0.10;;;11.80;1.00;;;;;;4869326;29;20473;-69
2023/10/25 09:08:39;;;;;;;2.93;1.20;;;11.80;1.00;;;;;;4874949;29;20461;-67
2023/10/25 09:11:09;;;;;;;0.50;0.10;;;11.90;1.00;;;;;;4878107;29;20819;-68
2023/10/25 09:13:38;;;;;;;0.50;0.10;;;11.90;1.00;;;;;;4880285;29;20460;-68
2023/10/25 09:16:08;;;;;;;0.53;0.20;;;12.00;1.00;;;;;;4869495;29;20590;-68
2023/10/25 09:18:38;;;;;;;2.07;1.17;;;12.00;1.00;;;;;;4879961;29;20534;-69
2023/10/25 09:21:08;;;;;;;0.50;0.20;;;11.90;1.00;;;;;;4880766;29;20538;-68
2023/10/25 09:23:41;;;;;;;0.50;0.10;;;11.90;1.00;;;;;;4880106;29;20461;-67
2023/10/25 09:26:16;;;;;;;0.50;0.10;;;12.10;1.00;;;;;;4872387;29;20442;-67
2023/10/25 09:28:46;;;;;;;2.00;1.43;;;12.10;1.00;;;;;;4879886;29;20511;-68
2023/10/25 09:31:23;;;;;;;0.60;0.20;;;12.10;1.00;;;;;;4874369;29;21022;-67
2023/10/25 09:33:52;;;;;;;0.50;0.10;;;12.10;1.00;;;;;;4876094;29;20985;-68
2023/10/25 09:36:20;;;;;;;0.50;0.10;;;12.20;1.00;;;;;;4879800;29;20567;-68
2023/10/25 09:38:51;;;;;;;0.60;0.20;;;12.30;1.00;;;;;;4877219;29;20513;-68
2023/10/25 09:41:19;;;;;;;1.00;0.30;;;12.40;1.00;;;;;;4872195;29;20455;-68
2023/10/25 09:43:49;;;;;;;0.87;0.87;;;12.30;1.00;;;;;;4880028;29;20457;-70
2023/10/25 09:46:19;;;;;;;0.50;0.10;;;12.30;1.00;;;;;;4879163;29;20555;-67
2023/10/25 09:48:56;;;;;;;0.50;0.10;;;12.40;1.00;;;;;;4869994;29;20496;-67
2023/10/25 09:51:30;;;;;;;0.50;0.20;;;;;;;;;;4872344;29;20893;-69
2023/10/25 09:54:11;;;;;;;0.53;0.10;;;12.40;1.00;;;;;;4871917;29;20539;-68
2023/10/25 09:56:40;;;;;;;1.90;0.60;;;12.40;1.00;;;;;;4872951;29;20497;-67
2023/10/25 09:59:10;;;;;;;0.50;0.20;;;12.40;1.00;;;;;;4873926;29;20490;-68
2023/10/25 10:01:39;;;;;;;0.50;0.10;;;12.50;1.00;;;;;;4871657;29;20459;-66
2023/10/25 10:04:15;;;;;;;0.60;0.27;;;12.50;1.00;;;;;;4873652;29;20451;-67
2023/10/25 10:06:54;;;;;;;0.50;0.10;;;12.50;1.00;;;;;;4871656;29;20487;-67
2023/10/25 10:09:32;;;;;;;0.50;0.10;;;12.60;1.00;;;;;;4876278;29;20578;-69
2023/10/25 10:12:04;;;;;;;0.50;0.10;;;12.50;1.00;;;;;;4874036;29;20517;-70
2023/10/25 10:14:35;;;;;;;0.50;0.10;;;12.60;1.00;;;;;;4871108;29;20447;-68
2023/10/25 10:17:08;;;;;;;0.50;0.10;;;12.60;1.00;;;;;;4873132;29;21090;-68
2023/10/25 10:19:41;;;;;;;0.50;0.10;;;12.60;1.00;;;;;;4880880;29;20878;-69
2023/10/25 10:22:11;;;;;;;1.10;0.77;;;12.60;1.00;;;;;;4874470;29;20467;-69
2023/10/25 10:24:45;;;;;;;0.50;0.10;;;12.70;1.00;;;;;;4878629;29;20479;-67
2023/10/25 10:27:14;;;;;;;0.50;0.10;;;12.80;1.00;;;;;;4872788;29;20519;-68
2023/10/25 10:29:44;;;;;;;0.50;0.10;;;12.70;1.00;;;;;;4878458;29;20840;-67
2023/10/25 10:32:12;;;;;;;0.50;0.30;;;12.70;1.00;;;;;;4877787;29;20482;-69
2023/10/25 10:34:43;;;;;;;0.60;0.10;;;12.70;1.00;;;;;;4870120;29;20462;-70
2023/10/25 10:37:13;;;;;;;0.50;0.10;;;12.70;1.00;;;;;;4876154;29;20492;-71
2023/10/25 10:40:13;;;;;;;3.33;3.13;;;12.70;1.00;;;;;;4877771;29;20512;-68
2023/10/25 10:42:42;;;;;;;0.60;0.40;;;12.60;1.00;;;;;;4873325;29;20967;-67
2023/10/25 10:45:15;;;;;;;2.20;0.87;;;12.70;1.00;;;;;;4878195;29;20456;-67
2023/10/25 10:47:44;;;;;;;0.50;0.10;;;12.70;1.00;;;;;;4878342;29;20830;-66
2023/10/25 10:50:14;;;;;;;0.50;0.10;;;12.70;1.00;;;;;;4878531;29;20574;-68
2023/10/25 10:52:45;;;;;;;0.50;0.10;;;12.70;1.00;;;;;;4868692;29;20527;-67
2023/10/25 10:55:16;;;;;;;0.50;0.10;;;12.80;1.00;;;;;;4873793;29;20528;-68
2023/10/25 10:57:44;;;;;;;0.50;0.10;;;12.80;1.00;;;;;;4873929;29;20502;-67
2023/10/25 11:00:32;;;;;;;0.90;0.50;;;12.70;1.00;;;;;;4873410;29;20440;-67
2023/10/25 11:03:02;;;;;;;0.50;0.10;;;12.70;1.00;;;;;;4870685;29;21177;-67
2023/10/25 11:05:37;;;;;;;0.50;0.10;;;12.80;1.00;;;;;;4867428;29;20950;-67
2023/10/25 11:08:09;;;;;;;0.50;0.10;;;12.80;1.00;;;;;;4872626;29;20471;-68
2023/10/25 11:10:39;;;;;;;0.50;0.10;;;12.90;1.00;;;;;;4869962;29;20590;-67
2023/10/25 11:13:08;;;;;;;0.53;0.20;;;12.80;1.00;;;;;;4876171;29;20458;-67
2023/10/25 11:15:36;;;;;;;0.60;0.10;;;12.80;1.00;;;;;;4877324;29;20459;-68
2023/10/25 11:18:07;;;;;;;0.50;0.10;;;12.90;1.00;;;;;;4876673;29;20476;-68
2023/10/25 11:20:35;;;;;;;1.33;1.13;;;;;;;;;;4877308;29;20463;-69
2023/10/25 11:23:04;;;;;;;0.53;0.10;;;;;;;;;;4877681;29;20527;-68
2023/10/25 11:25:32;;;;;;;0.50;0.10;;;12.80;1.00;;;;;;4877900;29;20455;-68
2023/10/25 11:28:01;;;;;;;0.50;0.10;;;12.80;1.00;;;;;;4877936;29;20468;-67
2023/10/25 11:30:30;;;;;;;0.50;0.10;;;12.90;1.00;;;;;;4870118;29;20475;-70
2023/10/25 11:32:58;;;;;;;0.50;0.10;;;12.90;1.00;;;;;;4878120;29;20477;-68
2023/10/25 11:35:28;;;;;;;0.50;0.10;;;12.90;1.00;;;;;;4872897;29;20464;-69
2023/10/25 11:37:58;;;;;;;0.50;0.10;;;12.90;1.00;;;;;;4872520;29;20478;-66
2023/10/25 11:40:38;;;;;;;0.50;0.10;;;12.90;1.00;;;;;;4877127;29;20443;-67
2023/10/25 11:43:08;;;;;;;0.53;0.10;;;12.90;1.00;;;;;;4877456;29;20465;-66
2023/10/25 11:45:37;;;;;;;0.50;0.10;;;13.00;1.00;;;;;;4876296;29;20483;-72
2023/10/25 11:48:07;;;;;;;0.50;0.10;;;12.90;1.00;;;;;;4867147;29;20479;-68
2023/10/25 11:50:35;;;;;;;0.50;0.10;;;12.90;1.00;;;;;;4870586;29;20456;-68
2023/10/25 11:53:03;;;;;;;0.60;0.30;;;13.00;1.00;;;;;;4875254;29;20447;-69
2023/10/25 11:55:31;;;;;;;1.17;0.63;;;13.00;1.00;;;;;;4875001;29;20452;-67
2023/10/25 11:58:01;;;;;;;0.50;0.10;;;12.90;1.00;;;;;;4873630;29;20492;-68
2023/10/25 12:00:31;;;;;;;0.50;0.10;;;12.80;1.00;;;;;;4874457;29;20837;-69
2023/10/25 12:02:59;;;;;;;0.50;0.10;;;12.90;1.00;;;;;;4873806;29;20457;-68
2023/10/25 12:05:27;;;;;;;0.50;0.10;;;12.90;1.00;;;;;;4871892;29;20873;-68
2023/10/25 12:07:55;;;;;;;0.50;0.10;;;12.90;1.00;;;;;;4869117;29;20521;-67
2023/10/25 12:10:25;;;;;;;1.20;1.17;;;12.80;1.00;;;;;;4874692;29;20455;-68
2023/10/25 12:12:53;;;;;;;0.70;0.43;;;12.80;1.00;;;;;;4876176;29;20457;-68
2023/10/25 12:15:20;;;;;;;0.50;0.10;;;12.80;1.00;;;;;;4873105;29;20569;-68
2023/10/25 12:17:50;;;;;;;0.57;0.27;;;12.70;1.00;;;;;;4876511;29;20873;-67
2023/10/25 12:20:18;;;;;;;0.50;0.10;;;12.70;1.00;;;;;;4875396;29;20985;-67
2023/10/25 12:22:56;;;;;;;0.50;0.10;;;12.60;1.00;;;;;;4870913;29;20479;-69
2023/10/25 12:25:25;;;;;;;0.50;0.10;;;12.70;1.00;;;;;;4871539;29;20547;-69
2023/10/25 12:27:53;;;;;;;0.50;0.17;;;12.60;1.00;;;;;;4874566;29;20475;-67
2023/10/25 12:30:22;;;;;;;0.77;0.57;;;12.50;1.00;;;;;;4870670;29;20841;-68
2023/10/25 12:32:53;;;;;;;0.50;0.10;;;12.40;1.00;;;;;;4873085;29;20545;-68
2023/10/25 12:35:22;;;;;;;0.63;0.37;;;12.60;1.00;;;;;;4874105;29;20454;-67
2023/10/25 12:37:50;;;;;;;0.50;0.10;;;12.60;1.00;;;;;;4871438;29;20501;-66
2023/10/25 12:40:17;;;;;;;0.50;0.30;;;12.60;1.00;;;;;;4877176;29;20534;-67
2023/10/25 12:42:45;;;;;;;0.50;0.10;;;12.70;1.00;;;;;;4876997;29;20464;-69
2023/10/25 12:45:13;;;;;;;0.50;0.10;;;12.70;1.00;;;;;;4876165;29;20542;-67
2023/10/25 12:47:41;;;;;;;0.50;0.30;;;12.60;1.00;;;;;;4875881;29;20476;-67
2023/10/25 12:50:11;;;;;;;2.20;1.90;;;12.60;1.00;;;;;;4876925;29;20458;-68
2023/10/25 12:52:39;;;;;;;0.50;0.20;;;12.70;25.60;;;;;;4876710;29;20575;-69
2023/10/25 12:55:07;;;;;;;0.50;0.10;;;;;;;;;;4876603;29;20543;-69
2023/10/25 12:57:35;;;;;;;0.50;0.10;;;12.80;49.10;;;;;;4869719;29;20575;-68
2023/10/25 13:00:03;;;;;;;0.50;0.10;;;12.80;58.10;;;;;;4877226;29;20498;-69
2023/10/25 13:02:31;;;;;;;0.50;0.10;;;12.90;59.00;;;;;;4875583;29;20543;-69
2023/10/25 13:04:59;;;;;;;0.50;0.10;;;12.90;55.80;;;;;;4871125;29;20511;-69
2023/10/25 13:07:30;;;;;;;0.70;0.30;;;12.90;27.20;;;;;;4868549;29;20471;-70
2023/10/25 13:09:58;;;;;;;3.47;1.63;;;12.80;7.60;;;;;;4870796;29;20461;-67
2023/10/25 13:12:31;;;;;;;0.50;0.10;;;12.80;8.70;;;;;;4858524;29;20449;-67
2023/10/25 13:14:59;;;;;;;0.50;0.10;;;12.80;11.50;;;;;;4858602;29;21042;-70
2023/10/25 13:17:27;;;;;;;1.00;0.30;;;12.80;14.20;;;;;;4872792;29;20942;-67
2023/10/25 13:19:56;;;;;;;0.53;0.27;;;12.70;12.40;;;;;;4873156;29;20522;-67
2023/10/25 13:22:24;;;;;;;0.50;0.10;;;12.70;25.70;;;;;;4873283;29;20472;-71
2023/10/25 13:24:53;;;;;;;0.50;0.10;;;12.60;35.50;;;;;;4876814;29;20543;-71
2023/10/25 13:27:21;;;;;;;0.60;0.30;;;12.70;73.20;;;;;;4865296;29;20515;-70
2023/10/25 13:29:49;;;;;;;0.50;0.10;;;12.70;92.30;;;;;;4871129;29;20461;-72
2023/10/25 13:32:17;;;;;;;0.50;0.23;;;12.70;92.30;;;;;;4874025;29;20997;-71
2023/10/25 13:34:45;;;;;;;0.60;0.40;;;12.60;98.80;;;;;;4875106;29;20453;-71
2023/10/25 13:37:13;;;;;;;0.50;0.10;;;12.70;99.90;;;;;;4875755;29;20465;-70
2023/10/25 13:39:41;;;;;;;0.50;0.10;;;12.70;99.90;;;;;;4876050;29;20494;-70
2023/10/25 13:42:11;;;;;;;0.63;0.57;;;12.70;99.90;;;;;;4876341;29;20453;-69
2023/10/25 13:44:39;;;;;;;0.50;0.10;;;;;;;;;;4869561;29;20553;-72
2023/10/25 13:47:09;;;;;;;0.50;0.10;;;12.80;99.90;;;;;;4876230;29;20455;-70
2023/10/25 13:49:37;;;;;;;0.50;0.20;;;12.80;99.90;;;;;;4876645;29;20545;-71
2023/10/25 13:52:05;;;;;;;0.50;0.10;;;12.80;99.90;;;;;;4876300;29;20463;-71
2023/10/25 13:54:33;;;;;;;3.17;2.93;;;12.80;99.90;;;;;;4877076;29;20960;-71
2023/10/25 13:57:02;;;;;;;0.50;0.10;;;12.80;99.90;;;;;;4874485;29;20494;-72
2023/10/25 13:59:31;;;;;;;0.57;0.10;;;12.90;99.90;;;;;;4874545;29;20921;-70
2023/10/25 14:01:59;;;;;;;0.50;0.10;;;13.00;99.90;;;;;;4877262;29;21081;-70
2023/10/25 14:04:27;;;;;;;0.50;0.10;;;12.90;99.90;;;;;;4873351;29;20476;-67
2023/10/25 14:06:55;;;;;;;1.33;0.43;;;12.90;99.90;;;;;;4872910;29;20461;-70
2023/10/25 14:09:25;;;;;;;0.50;0.10;;;12.90;99.90;;;;;;4866991;29;20472;-69
2023/10/25 14:11:59;;;;;;;3.90;0.50;;;;;;;;;;4875796;29;20492;-69
2023/10/25 14:14:27;;;;;;;0.50;0.10;;;12.80;99.90;;;;;;4873765;29;20459;-71
2023/10/25 14:16:57;;;;;;;0.50;0.10;;;12.90;99.90;;;;;;4871538;29;20956;-69
2023/10/25 14:19:25;;;;;;;0.50;0.20;;;12.90;99.90;;;;;;4876504;29;21001;-70
2023/10/25 14:21:52;;;;;;;0.50;0.10;;;12.90;99.90;;;;;;4878189;29;20452;-72
2023/10/25 14:24:20;;;;;;;0.50;0.10;;;13.00;99.90;;;;;;4876892;29;20542;-69
2023/10/25 14:26:48;;;;;;;0.50;0.10;;;12.90;99.90;;;;;;4875311;29;20457;-69
2023/10/25 14:29:17;;;;;;;0.50;0.10;;;13.00;99.90;;;;;;4867230;29;20514;-69
2023/10/25 14:31:45;;;;;;;0.50;0.10;;;13.10;99.90;;;;;;4878472;29;20534;-70
2023/10/25 14:34:16;;;;;;;0.50;0.10;;;;;;;;;;4871997;29;20826;-69
2023/10/25 14:36:44;;;;;;;1.23;0.57;;;13.10;99.90;;;;;;4874893;29;20506;-69
2023/10/25 14:39:14;;;;;;;0.60;0.30;;;13.00;99.90;;;;;;4875088;29;20503;-68
2023/10/25 14:41:42;;;;;;;0.50;0.20;;;13.00;99.90;;;;;;4878637;29;20527;-68
2023/10/25 14:44:10;;;;;;;0.50;0.20;;;13.10;99.90;;;;;;4874510;29;20495;-71
2023/10/25 14:46:38;;;;;;;0.50;0.10;;;13.10;99.90;;;;;;4877995;29;20892;-69
2023/10/25 14:49:06;;;;;;;0.70;0.30;;;13.00;99.90;;;;;;4872944;29;20572;-69
2023/10/25 14:51:39;;;;;;;0.50;0.10;;;;;;;;;;4874629;29;20934;-70
2023/10/25 14:54:09;;;;;;;0.50;0.10;;;13.20;99.90;;;;;;4875173;29;20470;-72
2023/10/25 14:56:38;;;;;;;0.50;0.10;;;;;;;;;;4882208;29;20460;-70
2023/10/25 14:59:06;;;;;;;0.50;0.10;;;13.20;99.90;;;;;;4875247;29;20494;-68
2023/10/25 15:01:35;;;;;;;0.50;0.10;;;13.10;99.90;;;;;;4878292;29;20457;-68
2023/10/25 15:04:03;;;;;;;0.50;0.30;;;13.20;99.90;;;;;;4863798;29;20457;-68
2023/10/25 15:06:32;;;;;;;0.50;0.10;;;13.20;99.90;;;;;;4869169;29;20460;-71
2023/10/25 15:09:02;;;;;;;0.50;0.10;;;13.20;99.90;;;;;;4870609;29;20842;-72
2023/10/25 15:11:30;;;;;;;7.70;6.90;;;13.20;99.90;;;;;;4876417;29;20468;-70
2023/10/25 15:13:58;;;;;;;0.50;0.10;;;13.20;99.90;;;;;;4872470;29;20492;-72
2023/10/25 15:16:25;;;;;;;0.50;0.10;;;13.30;99.90;;;;;;4876656;29;20514;-71
2023/10/25 15:18:53;;;;;;;0.50;0.10;;;13.40;99.90;;;;;;4876176;29;21025;-68
2023/10/25 15:21:21;;;;;;;0.50;0.10;;;13.40;99.90;;;;;;4868954;29;20909;-68
2023/10/25 15:23:49;;;;;;;0.50;0.10;;;13.40;99.90;;;;;;4872653;29;20545;-67
2023/10/25 15:26:18;;;;;;;0.50;0.10;;;13.40;99.90;;;;;;4876687;29;20826;-68
2023/10/25 15:28:46;;;;;;;0.50;0.10;;;13.40;99.90;;;;;;4876165;29;20499;-73
2023/10/25 15:31:19;;;;;;;0.50;0.10;;;13.40;99.90;;;;;;4876762;29;20448;-71
2023/10/25 15:33:48;;;;;;;0.50;0.30;;;13.40;99.90;;;;;;4867379;29;20455;-70
2023/10/25 15:36:16;;;;;;;0.50;0.10;;;13.50;99.90;;;;;;4873420;29;20451;-71
2023/10/25 15:38:44;;;;;;;0.50;0.20;;;13.50;99.90;;;;;;4865538;29;20550;-70
2023/10/25 15:41:20;;;;;;;0.50;0.20;;;13.50;99.90;;;;;;4866086;29;20544;-72
2023/10/25 15:43:48;;;;;;;0.70;0.67;;;13.50;99.90;;;;;;4877183;29;20822;-67
2023/10/25 15:46:22;;;;;;;0.60;0.30;;;13.60;99.90;;;;;;4876639;29;20542;-72
2023/10/25 15:48:52;;;;;;;0.50;0.10;;;13.60;99.90;;;;;;4877794;29;20472;-69
2023/10/25 15:51:20;;;;;;;0.50;0.10;;;13.60;99.90;;;;;;4877733;29;20453;-68
2023/10/25 15:53:48;;;;;;;0.50;0.10;;;13.60;99.90;;;;;;4877846;29;20448;-69
2023/10/25 15:56:16;;;;;;;0.60;0.30;;;13.60;99.90;;;;;;4877510;29;20461;-69
2023/10/25 15:58:46;;;;;;;0.60;0.20;;;13.60;99.90;;;;;;4877122;29;20492;-68
2023/10/25 16:01:15;;;;;;;0.50;0.10;;;13.60;99.90;;;;;;4877388;29;20452;-69
2023/10/25 16:03:58;;;;;;;0.50;0.17;;;13.60;99.90;;;;;;4871400;29;20488;-68
2023/10/25 16:06:26;;;;;;;0.50;0.23;;;13.70;99.90;;;;;;4867093;29;20469;-69
2023/10/25 16:08:55;;;;;;;0.50;0.10;;;;;;;;;;4862225;29;20465;-73
2023/10/25 16:11:23;;;;;;;0.77;0.57;;;13.60;99.90;;;;;;4873897;29;20499;-70
2023/10/25 16:13:52;;;;;;;0.50;0.20;;;13.60;99.90;;;;;;4877171;29;20456;-71
2023/10/25 16:16:20;;;;;;;0.50;0.20;;;13.60;99.90;;;;;;4863111;29;21200;-69
2023/10/25 16:18:48;;;;;;;0.50;0.10;;;13.50;99.90;;;;;;4876967;29;20496;-69
2023/10/25 16:21:16;;;;;;;0.50;0.10;;;13.60;99.90;;;;;;4876826;29;20449;-69
2023/10/25 16:23:45;;;;;;;0.50;0.10;;;13.60;99.90;;;;;;4877328;29;20456;-67
2023/10/25 16:26:14;;;;;;;0.50;0.10;;;13.60;99.90;;;;;;4876535;29;20480;-69
2023/10/25 16:28:43;;;;;;;0.50;0.10;;;13.70;99.90;;;;;;4876993;29;20488;-69
2023/10/25 16:31:13;;;;;;;0.60;0.30;;;13.60;99.90;;;;;;4877144;29;20439;-71
2023/10/25 16:33:41;;;;;;;0.50;0.10;;;13.60;99.90;;;;;;4874441;29;20445;-69
2023/10/25 16:36:10;;;;;;;0.50;0.10;;;13.60;99.90;;;;;;4871992;29;20959;-71
2023/10/25 16:38:38;;;;;;;0.60;0.20;;;13.60;99.90;;;;;;4876713;29;21018;-67
2023/10/25 16:41:08;;;;;;;0.60;0.47;;;13.50;99.90;;;;;;4874272;29;20463;-68
2023/10/25 16:43:37;;;;;;;1.27;1.17;;;13.50;99.90;;;;;;4876767;29;20485;-70
2023/10/25 16:46:06;;;;;;;0.50;0.20;;;13.50;99.90;;;;;;4876092;29;20461;-67
2023/10/25 16:48:37;;;;;;;0.50;0.20;;;13.50;99.90;;;;;;4876728;29;20560;-67
2023/10/25 16:51:10;;;;;;;0.50;0.20;;;13.60;99.90;;;;;;4870801;29;20533;-66
2023/10/25 16:53:38;;;;;;;1.17;0.50;;;13.60;99.90;;;;;;4876444;29;20485;-71
2023/10/25 16:56:07;;;;;;;5.07;1.00;;;13.60;99.90;;;;;;4875939;29;20466;-66
2023/10/25 16:58:35;;;;;;;0.70;0.30;;;13.60;99.90;;;;;;4875273;29;20568;-67
2023/10/25 17:01:03;;;;;;;0.50;0.10;;;13.60;99.90;;;;;;4876540;29;20493;-69
2023/10/25 17:03:31;;;;;;;0.57;0.37;;;13.70;99.90;;;;;;4876546;29;20484;-70
2023/10/25 17:06:01;;;;;;;0.50;0.10;;;13.70;99.90;;;;;;4876127;29;20465;-69
2023/10/25 17:08:32;;;;;;;0.60;0.50;;;13.60;99.90;;;;;;4870460;29;20485;-69
2023/10/25 17:11:00;;;;;;;0.60;0.33;;;13.60;99.90;;;;;;4877485;29;20598;-69
2023/10/25 17:13:29;;;;;;;0.60;0.50;;;13.60;99.90;;;;;;4877853;29;20895;-73